createdAt,value
2018-02-23T00:00:40.018Z,101228.30
2018-02-23T00:01:42.537Z,101222.86
2018-02-23T00:02:45.013Z,101229.39
2018-02-23T00:03:47.483Z,101226.30
2018-02-23T00:04:49.943Z,101225.41
2018-02-23T00:05:52.418Z,101227.83
2018-02-23T00:06:54.907Z,101225.31
2018-02-23T00:07:57.393Z,101233.09
2018-02-23T00:08:59.882Z,101227.61
2018-02-23T00:10:02.353Z,101227.69
2018-02-23T00:11:04.832Z,101236.03
2018-02-23T00:12:07.347Z,101230.19
2018-02-23T00:13:09.807Z,101228.06
2018-02-23T00:14:12.275Z,101228.11
2018-02-23T00:15:14.747Z,101225.42
2018-02-23T00:16:17.243Z,101224.93
2018-02-23T00:17:19.732Z,101223.87
2018-02-23T00:18:22.213Z,101223.63
2018-02-23T00:19:24.673Z,101231.64
2018-02-23T00:20:27.173Z,101221.91
2018-02-23T00:21:29.652Z,101222.22
2018-02-23T00:22:39.838Z,101222.55
2018-02-23T00:23:42.327Z,101226.43
2018-02-23T00:24:44.824Z,101220.23
2018-02-23T00:25:47.292Z,101222.74
2018-02-23T00:26:49.773Z,101221.28
2018-02-23T00:27:52.282Z,101223.78
2018-02-23T00:28:54.773Z,101219.56
2018-02-23T00:29:57.266Z,101221.66
2018-02-23T00:30:59.752Z,101226.92
2018-02-23T00:32:02.231Z,101226.84
2018-02-23T00:33:04.719Z,101227.13
2018-02-23T00:34:07.187Z,101228.81
2018-02-23T00:35:09.646Z,101222.22
2018-02-23T00:36:12.129Z,101226.09
2018-02-23T00:37:14.602Z,101223.91
2018-02-23T00:38:17.104Z,101220.34
2018-02-23T00:39:19.567Z,101230.70
2018-02-23T00:40:22.036Z,101229.08
2018-02-23T00:41:24.503Z,101224.70
2018-02-23T00:42:26.967Z,101229.15
2018-02-23T00:43:29.460Z,101226.55
2018-02-23T00:44:31.932Z,101219.17
2018-02-23T00:45:34.403Z,101221.67
2018-02-23T00:46:36.889Z,101219.23
2018-02-23T00:47:39.353Z,101214.45
2018-02-23T00:48:41.844Z,101216.95
2018-02-23T00:49:44.312Z,101211.89
2018-02-23T00:50:46.779Z,101214.23
2018-02-23T00:51:49.277Z,101213.33
2018-02-23T00:52:51.761Z,101209.52
2018-02-23T00:53:54.255Z,101208.86
2018-02-23T00:54:56.736Z,101208.37
2018-02-23T00:55:59.209Z,101207.14
2018-02-23T00:57:01.691Z,101213.37
2018-02-23T00:58:04.159Z,101205.84
2018-02-23T00:59:06.648Z,101213.56
2018-02-23T01:00:09.133Z,101204.65
2018-02-23T01:01:11.609Z,101211.04
2018-02-23T01:02:14.075Z,101206.66
2018-02-23T01:03:16.551Z,101205.19
2018-02-23T01:04:19.035Z,101206.72
2018-02-23T01:05:21.514Z,101208.82
2018-02-23T01:06:24.007Z,101205.57
2018-02-23T01:07:26.486Z,101208.89
2018-02-23T01:08:28.951Z,101204.66
2018-02-23T01:09:31.435Z,101205.79
2018-02-23T01:10:33.903Z,101208.98
2018-02-23T01:11:36.381Z,101205.58
2018-02-23T01:12:38.866Z,101210.59
2018-02-23T01:13:41.346Z,101207.33
2018-02-23T01:14:43.852Z,101204.89
2018-02-23T01:15:46.322Z,101203.83
2018-02-23T01:16:48.805Z,101205.11
2018-02-23T01:17:51.271Z,101203.23
2018-02-23T01:18:53.739Z,101205.86
2018-02-23T01:19:56.237Z,101208.12
2018-02-23T01:20:58.718Z,101211.34
2018-02-23T01:22:01.206Z,101206.71
2018-02-23T01:23:03.678Z,101212.13
2018-02-23T01:24:06.147Z,101210.09
2018-02-23T01:25:08.649Z,101205.30
2018-02-23T01:26:11.115Z,101207.40
2018-02-23T01:27:13.597Z,101206.34
2018-02-23T01:28:16.086Z,101211.59
2018-02-23T01:29:18.569Z,101206.77
2018-02-23T01:30:21.077Z,101212.99
2018-02-23T01:31:23.536Z,101210.55
2018-02-23T01:32:26.026Z,101215.25
2018-02-23T01:33:28.510Z,101215.55
2018-02-23T01:34:30.988Z,101220.41
2018-02-23T01:35:33.495Z,101213.67
2018-02-23T01:36:36.017Z,101208.33
2018-02-23T01:37:38.490Z,101202.86
2018-02-23T01:38:40.974Z,101206.98
2018-02-23T01:39:43.462Z,101203.02
2018-02-23T01:40:45.965Z,101206.73
2018-02-23T01:41:48.441Z,101202.51
2018-02-23T01:42:50.916Z,101206.36
2018-02-23T01:43:53.388Z,101203.20
2018-02-23T01:44:55.883Z,101203.48
2018-02-23T01:45:58.388Z,101201.70
2018-02-23T01:47:00.917Z,101203.88
2018-02-23T01:48:03.402Z,101209.39
2018-02-23T01:49:05.904Z,101204.86
2018-02-23T01:50:08.368Z,101202.23
2018-02-23T01:51:10.871Z,101194.13
2018-02-23T01:52:13.352Z,101202.38
2018-02-23T01:53:15.837Z,101196.22
2018-02-23T01:54:18.321Z,101192.00
2018-02-23T01:55:20.808Z,101199.44
2018-02-23T01:56:23.311Z,101187.78
2018-02-23T01:57:25.797Z,101191.50
2018-02-23T01:58:28.285Z,101192.63
2018-02-23T01:59:30.750Z,101188.25
2018-02-23T02:00:33.215Z,101191.71
2018-02-23T02:01:35.713Z,101186.93
2018-02-23T02:02:38.187Z,101188.05
2018-02-23T02:03:40.664Z,101192.34
2018-02-23T02:04:43.299Z,101181.33
2018-02-23T02:05:45.785Z,101184.49
2018-02-23T02:06:48.271Z,101175.58
2018-02-23T02:07:50.740Z,101174.77
2018-02-23T02:08:53.324Z,101176.98
2018-02-23T02:09:55.800Z,101177.80
2018-02-23T02:10:58.265Z,101178.52
2018-02-23T02:12:00.767Z,101173.17
2018-02-23T02:13:03.253Z,101170.98
2018-02-23T02:14:05.753Z,101172.27
2018-02-23T02:15:08.227Z,101166.36
2018-02-23T02:16:10.726Z,101168.45
2018-02-23T02:17:13.225Z,101172.32
2018-02-23T02:18:15.727Z,101169.06
2018-02-23T02:19:18.229Z,101166.88
2018-02-23T02:20:20.699Z,101164.28
2018-02-23T02:21:23.180Z,101169.94
2018-02-23T02:22:25.698Z,101167.50
2018-02-23T02:23:28.166Z,101167.66
2018-02-23T02:24:30.635Z,101165.06
2018-02-23T02:25:33.104Z,101164.22
2018-02-23T02:26:35.584Z,101170.43
2018-02-23T02:27:38.072Z,101171.15
2018-02-23T02:28:40.562Z,101170.89
2018-02-23T02:29:43.050Z,101168.70
2018-02-23T02:30:45.545Z,101167.48
2018-02-23T02:31:48.012Z,101170.14
2018-02-23T02:33:59.343Z,101165.61
2018-02-23T02:35:01.808Z,101164.64
2018-02-23T02:36:04.277Z,101169.17
2018-02-23T02:37:06.771Z,101166.02
2018-02-23T02:38:09.259Z,101162.05
2018-02-23T02:39:11.831Z,101160.58
2018-02-23T02:40:14.322Z,101148.77
2018-02-23T02:41:16.791Z,101162.52
2018-02-23T02:42:19.269Z,101164.20
2018-02-23T02:43:21.764Z,101157.07
2018-02-23T02:44:24.249Z,101160.78
2018-02-23T02:45:26.728Z,101157.22
2018-02-23T02:46:29.210Z,101158.34
2018-02-23T02:47:31.693Z,101160.28
2018-02-23T02:48:34.220Z,101160.97
2018-02-23T02:49:36.686Z,101160.31
2018-02-23T02:50:39.165Z,101150.84
2018-02-23T02:51:41.646Z,101167.90
2018-02-23T02:52:44.197Z,101159.39
2018-02-23T02:53:46.648Z,101163.11
2018-02-23T02:54:49.129Z,101158.02
2018-02-23T02:55:51.625Z,101157.62
2018-02-23T02:56:54.092Z,101154.20
2018-02-23T02:57:56.559Z,101156.86
2018-02-23T02:58:59.040Z,101153.86
2018-02-23T03:00:01.536Z,101155.95
2018-02-23T03:01:04.019Z,101153.10
2018-02-23T03:02:06.493Z,101149.69
2018-02-23T03:03:09.009Z,101147.91
2018-02-23T03:04:11.475Z,101151.22
2018-02-23T03:05:13.952Z,101152.88
2018-02-23T03:06:16.419Z,101152.63
2018-02-23T03:07:18.892Z,101146.06
2018-02-23T03:08:21.393Z,101148.55
2018-02-23T03:09:23.876Z,101150.64
2018-02-23T03:10:26.348Z,101143.11
2018-02-23T03:11:28.847Z,101155.63
2018-02-23T03:12:31.325Z,101151.27
2018-02-23T03:13:33.834Z,101156.50
2018-02-23T03:14:36.322Z,101153.25
2018-02-23T03:15:38.803Z,101153.25
2018-02-23T03:16:41.266Z,101153.81
2018-02-23T03:17:43.732Z,101154.93
2018-02-23T03:18:46.233Z,101155.90
2018-02-23T03:19:48.714Z,101157.42
2018-02-23T03:20:51.205Z,101156.05
2018-02-23T03:21:53.680Z,101154.27
2018-02-23T03:22:56.164Z,101163.48
2018-02-23T03:23:58.655Z,101160.45
2018-02-23T03:25:01.162Z,101160.04
2018-02-23T03:26:03.642Z,101164.31
2018-02-23T03:27:06.124Z,101161.57
2018-02-23T03:28:08.610Z,101162.84
2018-02-23T03:29:11.094Z,101165.19
2018-02-23T03:30:13.583Z,101169.45
2018-02-23T03:31:16.074Z,101163.71
2018-02-23T03:32:18.544Z,101166.05
2018-02-23T03:33:21.029Z,101168.95
2018-02-23T03:34:23.532Z,101170.33
2018-02-23T03:35:26.013Z,101172.82
2018-02-23T03:36:28.487Z,101170.63
2018-02-23T03:37:30.968Z,101166.66
2018-02-23T03:38:33.441Z,101171.75
2018-02-23T03:39:35.940Z,101166.81
2018-02-23T03:40:38.426Z,101165.03
2018-02-23T03:41:40.910Z,101167.38
2018-02-23T03:42:43.380Z,101164.50
2018-02-23T03:43:45.869Z,101164.50
2018-02-23T03:44:48.364Z,101171.92
2018-02-23T03:45:50.836Z,101165.21
2018-02-23T03:46:53.330Z,101168.67
2018-02-23T03:47:55.825Z,101169.36
2018-02-23T03:48:58.308Z,101171.28
2018-02-23T03:50:00.787Z,101177.75
2018-02-23T03:51:03.269Z,101169.66
2018-02-23T03:52:05.752Z,101169.81
2018-02-23T03:53:08.249Z,101170.38
2018-02-23T03:54:10.888Z,101165.84
2018-02-23T03:55:13.380Z,101176.02
2018-02-23T03:56:15.961Z,101176.58
2018-02-23T03:57:18.445Z,101173.83
2018-02-23T03:58:20.921Z,101170.27
2018-02-23T03:59:23.402Z,101164.38
2018-02-23T04:00:25.910Z,101163.71
2018-02-23T04:01:28.375Z,101170.17
2018-02-23T04:02:30.856Z,101161.52
2018-02-23T04:03:33.339Z,101157.96
2018-02-23T04:04:35.798Z,101161.02
2018-02-23T04:05:38.297Z,101154.70
2018-02-23T04:06:40.782Z,101158.58
2018-02-23T04:07:43.286Z,101163.25
2018-02-23T04:08:45.761Z,101153.23
2018-02-23T04:09:48.230Z,101157.91
2018-02-23T04:10:50.746Z,101152.72
2018-02-23T04:11:53.223Z,101157.25
2018-02-23T04:12:55.688Z,101156.71
2018-02-23T04:13:58.274Z,101153.00
2018-02-23T04:15:00.773Z,101156.05
2018-02-23T04:16:03.256Z,101160.73
2018-02-23T04:17:05.733Z,101157.32
2018-02-23T04:18:08.239Z,101161.44
2018-02-23T04:19:10.724Z,101163.52
2018-02-23T04:20:13.217Z,101166.02
2018-02-23T04:21:15.718Z,101163.83
2018-02-23T04:22:18.186Z,101172.06
2018-02-23T04:23:20.710Z,101165.36
2018-02-23T04:24:23.163Z,101167.84
2018-02-23T04:25:25.653Z,101169.63
2018-02-23T04:26:28.161Z,101168.41
2018-02-23T04:27:30.627Z,101167.19
2018-02-23T04:28:33.142Z,101169.27
2018-02-23T04:29:35.625Z,101172.58
2018-02-23T04:30:38.129Z,101168.77
2018-02-23T04:31:40.632Z,101164.64
2018-02-23T04:32:43.107Z,101168.50
2018-02-23T04:33:45.592Z,101166.31
2018-02-23T04:34:48.073Z,101170.03
2018-02-23T04:35:50.534Z,101161.50
2018-02-23T04:36:53.066Z,101164.81
2018-02-23T04:37:55.552Z,101163.18
2018-02-23T04:38:58.051Z,101161.55
2018-02-23T04:40:00.515Z,101164.45
2018-02-23T04:41:02.998Z,101167.20
2018-02-23T04:42:05.505Z,101163.79
2018-02-23T04:43:07.971Z,101167.09
2018-02-23T04:44:10.435Z,101161.34
2018-02-23T04:45:12.906Z,101165.21
2018-02-23T04:46:15.372Z,101174.41
2018-02-23T04:47:17.873Z,101170.45
2018-02-23T04:48:20.335Z,101172.94
2018-02-23T04:49:22.830Z,101172.13
2018-02-23T04:50:25.321Z,101178.17
2018-02-23T04:51:27.788Z,101179.29
2018-02-23T04:52:30.301Z,101176.55
2018-02-23T04:53:32.781Z,101177.10
2018-02-23T04:54:35.258Z,101175.47
2018-02-23T04:55:37.747Z,101180.00
2018-02-23T04:56:40.239Z,101182.08
2018-02-23T04:57:42.757Z,101177.56
2018-02-23T04:58:45.224Z,101179.86
2018-02-23T04:59:47.721Z,101180.02
2018-02-23T05:00:50.207Z,101181.13
2018-02-23T05:01:52.676Z,101182.09
2018-02-23T05:02:55.175Z,101180.88
2018-02-23T05:03:57.643Z,101181.44
2018-02-23T05:05:00.159Z,101186.11
2018-02-23T05:06:02.645Z,101189.01
2018-02-23T05:07:05.124Z,101187.38
2018-02-23T05:08:07.618Z,101178.73
2018-02-23T05:09:10.102Z,101193.42
2018-02-23T05:10:12.597Z,101185.09
2018-02-23T05:11:15.077Z,101189.20
2018-02-23T05:12:17.551Z,101180.71
2018-02-23T05:13:20.049Z,101184.02
2018-02-23T05:14:22.537Z,101182.13
2018-02-23T05:15:25.026Z,101185.44
2018-02-23T05:16:27.521Z,101184.62
2018-02-23T05:17:29.991Z,101183.80
2018-02-23T05:18:32.498Z,101184.36
2018-02-23T05:19:34.995Z,101194.13
2018-02-23T05:20:37.465Z,101184.63
2018-02-23T05:21:39.961Z,101186.30
2018-02-23T05:22:42.465Z,101180.39
2018-02-23T05:23:44.977Z,101185.89
2018-02-23T05:24:47.473Z,101194.94
2018-02-23T05:25:50.009Z,101189.04
2018-02-23T05:26:52.505Z,101190.00
2018-02-23T05:27:54.973Z,101196.02
2018-02-23T05:28:57.464Z,101188.34
2018-02-23T05:29:59.946Z,101197.55
2018-02-23T05:31:02.449Z,101194.54
2018-02-23T05:32:04.933Z,101191.80
2018-02-23T05:33:07.421Z,101189.20
2018-02-23T05:34:09.941Z,101192.09
2018-02-23T05:35:12.430Z,101189.50
2018-02-23T05:36:14.907Z,101188.69
2018-02-23T05:37:17.442Z,101184.72
2018-02-23T05:38:19.943Z,101182.69
2018-02-23T05:39:22.455Z,101186.55
2018-02-23T05:40:24.934Z,101183.80
2018-02-23T05:41:27.425Z,101182.17
2018-02-23T05:42:29.895Z,101180.39
2018-02-23T05:43:32.363Z,101177.80
2018-02-23T05:44:34.851Z,101175.46
2018-02-23T05:45:37.330Z,101182.88
2018-02-23T05:46:39.798Z,101179.33
2018-02-23T05:47:42.278Z,101179.33
2018-02-23T05:48:44.747Z,101188.92
2018-02-23T05:49:47.232Z,101180.03
2018-02-23T05:50:49.757Z,101181.00
2018-02-23T05:51:52.240Z,101184.70
2018-02-23T05:52:54.732Z,101183.33
2018-02-23T05:53:57.230Z,101185.67
2018-02-23T05:54:59.734Z,101187.45
2018-02-23T05:56:02.225Z,101183.89
2018-02-23T05:57:04.703Z,101186.23
2018-02-23T05:58:07.202Z,101188.97
2018-02-23T05:59:09.683Z,101187.75
2018-02-23T06:00:12.196Z,101181.16
2018-02-23T06:01:14.685Z,101182.69
2018-02-23T06:02:17.175Z,101183.95
2018-02-23T06:03:19.665Z,101181.35
2018-02-23T06:04:22.161Z,101184.66
2018-02-23T06:05:24.695Z,101188.66
2018-02-23T06:06:27.168Z,101185.25
2018-02-23T06:07:29.698Z,101189.52
2018-02-23T06:08:32.205Z,101182.96
2018-02-23T06:09:34.683Z,101184.08
2018-02-23T06:10:37.168Z,101184.23
2018-02-23T06:11:39.631Z,101186.56
2018-02-23T06:12:42.186Z,101186.86
2018-02-23T06:13:44.696Z,101187.42
2018-02-23T06:14:47.167Z,101183.86
2018-02-23T06:15:55.302Z,101180.71
2018-02-23T06:16:57.799Z,101182.20
2018-02-23T06:18:05.889Z,101183.31
2018-02-23T06:19:08.368Z,101188.80
2018-02-23T06:20:10.847Z,101185.80
2018-02-23T06:21:13.356Z,101190.84
2018-02-23T06:22:15.879Z,101191.96
2018-02-23T06:23:18.342Z,101189.77
2018-02-23T06:24:20.830Z,101196.63
2018-02-23T06:25:23.321Z,101195.81
2018-02-23T06:26:25.839Z,101198.16
2018-02-23T06:27:28.333Z,101199.53
2018-02-23T06:28:30.825Z,101194.85
2018-02-23T06:29:33.330Z,101194.59
2018-02-23T06:30:35.815Z,101201.45
2018-02-23T06:31:38.324Z,101196.11
2018-02-23T06:32:40.800Z,101202.97
2018-02-23T06:33:43.294Z,101201.90
2018-02-23T06:34:45.768Z,101207.39
2018-02-23T06:35:48.346Z,101208.35
2018-02-23T06:36:50.957Z,101205.20
2018-02-23T06:37:53.438Z,101204.39
2018-02-23T06:38:55.925Z,101214.55
2018-02-23T06:39:58.417Z,101207.69
2018-02-23T06:41:00.898Z,101215.51
2018-02-23T06:42:03.415Z,101215.09
2018-02-23T06:43:05.911Z,101212.51
2018-02-23T06:44:08.405Z,101213.88
2018-02-23T06:45:10.933Z,101217.98
2018-02-23T06:46:13.421Z,101218.55
2018-02-23T06:47:15.922Z,101214.99
2018-02-23T06:48:18.411Z,101216.77
2018-02-23T06:49:20.886Z,101219.11
2018-02-23T06:50:23.366Z,101214.03
2018-02-23T06:51:25.865Z,101217.33
2018-02-23T06:52:28.378Z,101215.14
2018-02-23T06:53:30.908Z,101217.47
2018-02-23T06:54:33.391Z,101216.25
2018-02-23T06:55:35.880Z,101219.81
2018-02-23T06:56:38.382Z,101217.22
2018-02-23T06:57:40.889Z,101209.14
2018-02-23T06:58:43.368Z,101213.66
2018-02-23T06:59:45.872Z,101217.36
2018-02-23T07:00:48.373Z,101213.66
2018-02-23T07:01:50.862Z,101212.44
2018-02-23T07:02:53.399Z,101216.95
2018-02-23T07:03:55.861Z,101219.14
2018-02-23T07:04:58.336Z,101222.45
2018-02-23T07:06:00.829Z,101222.56
2018-02-23T07:07:03.322Z,101227.23
2018-02-23T07:08:05.834Z,101222.71
2018-02-23T07:09:08.329Z,101229.16
2018-02-23T07:10:10.808Z,101224.59
2018-02-23T07:11:13.416Z,101229.22
2018-02-23T07:12:15.797Z,101221.92
2018-02-23T07:13:18.307Z,101228.66
2018-02-23T07:14:20.805Z,101223.11
2018-02-23T07:15:23.309Z,101222.05
2018-02-23T07:16:25.819Z,101224.05
2018-02-23T07:17:28.292Z,101224.83
2018-02-23T07:18:31.139Z,101228.72
2018-02-23T07:19:33.631Z,101232.23
2018-02-23T07:20:36.134Z,101228.98
2018-02-23T07:21:38.647Z,101229.61
2018-02-23T07:22:41.127Z,101228.27
2018-02-23T07:23:43.637Z,101229.67
2018-02-23T07:24:46.161Z,101232.86
2018-02-23T07:25:48.669Z,101225.05
2018-02-23T07:26:51.162Z,101229.86
2018-02-23T07:27:53.670Z,101236.45
2018-02-23T07:28:56.196Z,101232.23
2018-02-23T07:29:58.691Z,101237.33
2018-02-23T07:31:01.171Z,101232.84
2018-02-23T07:32:03.668Z,101230.14
2018-02-23T07:33:06.165Z,101231.51
2018-02-23T07:34:08.664Z,101233.98
2018-02-23T07:35:11.145Z,101232.77
2018-02-23T07:36:13.637Z,101231.54
2018-02-23T07:37:16.119Z,101234.02
2018-02-23T07:38:18.730Z,101235.39
2018-02-23T07:39:21.230Z,101239.50
2018-02-23T07:40:23.726Z,101237.05
2018-02-23T07:41:26.448Z,101231.72
2018-02-23T07:42:28.982Z,101235.02
2018-02-23T07:43:31.464Z,101231.72
2018-02-23T07:44:34.014Z,101239.12
2018-02-23T07:45:36.528Z,101235.02
2018-02-23T07:46:39.004Z,101228.72
2018-02-23T07:47:41.491Z,101234.61
2018-02-23T07:48:43.981Z,101234.61
2018-02-23T07:49:46.497Z,101241.45
2018-02-23T07:50:48.972Z,101230.09
2018-02-23T07:51:51.494Z,101237.34
2018-02-23T07:52:53.972Z,101232.02
2018-02-23T07:53:56.459Z,101231.75
2018-02-23T07:54:58.948Z,101239.16
2018-02-23T07:56:01.441Z,101238.89
2018-02-23T07:57:03.930Z,101237.93
2018-02-23T07:58:06.417Z,101239.85
2018-02-23T07:59:08.922Z,101241.92
2018-02-23T08:00:11.463Z,101241.25
2018-02-23T08:01:13.961Z,101243.15
2018-02-23T08:02:16.447Z,101242.48
2018-02-23T08:03:18.942Z,101242.63
2018-02-23T08:04:21.432Z,101239.47
2018-02-23T08:05:24.066Z,101236.33
2018-02-23T08:06:26.544Z,101237.14
2018-02-23T08:07:29.018Z,101240.55
2018-02-23T08:08:31.509Z,101246.99
2018-02-23T08:09:34.010Z,101237.00
2018-02-23T08:10:36.553Z,101240.30
2018-02-23T08:11:39.032Z,101244.66
2018-02-23T08:12:41.507Z,101239.33
2018-02-23T08:13:43.992Z,101236.41
2018-02-23T08:14:46.467Z,101237.88
2018-02-23T08:15:48.967Z,101239.06
2018-02-23T08:16:51.449Z,101242.33
2018-02-23T08:17:53.931Z,101239.14
2018-02-23T08:18:56.430Z,101242.55
2018-02-23T08:19:58.912Z,101247.77
2018-02-23T08:21:01.484Z,101244.88
2018-02-23T08:22:03.977Z,101248.21
2018-02-23T08:23:06.474Z,101253.02
2018-02-23T08:24:08.951Z,101245.06
2018-02-23T08:25:11.435Z,101246.02
2018-02-23T08:26:13.936Z,101245.36
2018-02-23T08:27:16.423Z,101243.44
2018-02-23T08:28:18.900Z,101249.55
2018-02-23T08:29:21.401Z,101251.12
2018-02-23T08:30:23.893Z,101247.02
2018-02-23T08:31:26.396Z,101245.84
2018-02-23T08:32:28.870Z,101244.39
2018-02-23T08:33:31.439Z,101232.86
2018-02-23T08:34:33.924Z,101241.91
2018-02-23T08:35:36.455Z,101240.25
2018-02-23T08:36:38.972Z,101245.06
2018-02-23T08:37:41.460Z,101244.63
2018-02-23T08:38:43.950Z,101244.72
2018-02-23T08:39:46.446Z,101236.38
2018-02-23T08:40:48.955Z,101243.45
2018-02-23T08:41:51.455Z,101239.75
2018-02-23T08:42:53.943Z,101244.98
2018-02-23T08:43:56.416Z,101243.69
2018-02-23T08:44:58.882Z,101233.29
2018-02-23T08:46:01.446Z,101243.32
2018-02-23T08:47:03.948Z,101237.55
2018-02-23T08:48:06.449Z,101237.09
2018-02-23T08:49:08.950Z,101237.86
2018-02-23T08:50:11.419Z,101238.22
2018-02-23T08:51:13.899Z,101230.72
2018-02-23T08:52:16.387Z,101233.89
2018-02-23T08:53:18.854Z,101235.14
2018-02-23T08:54:21.341Z,101233.64
2018-02-23T08:55:23.826Z,101231.89
2018-02-23T08:56:26.307Z,101234.30
2018-02-23T08:57:28.795Z,101227.28
2018-02-23T08:58:31.268Z,101238.61
2018-02-23T08:59:33.760Z,101234.64
2018-02-23T09:00:46.049Z,101219.75
2018-02-23T09:01:48.519Z,101227.66
2018-02-23T09:02:51.022Z,101226.10
2018-02-23T09:03:53.499Z,101226.01
2018-02-23T09:04:56.000Z,101220.91
2018-02-23T09:05:58.477Z,101227.08
2018-02-23T09:07:00.963Z,101227.51
2018-02-23T09:08:03.546Z,101231.07
2018-02-23T09:09:06.023Z,101222.37
2018-02-23T09:10:08.505Z,101231.28
2018-02-23T09:11:10.993Z,101227.92
2018-02-23T09:12:13.480Z,101229.13
2018-02-23T09:13:15.968Z,101235.72
2018-02-23T09:14:18.453Z,101231.67
2018-02-23T09:15:20.933Z,101234.77
2018-02-23T09:16:23.423Z,101239.88
2018-02-23T09:17:25.928Z,101232.83
2018-02-23T09:18:28.464Z,101228.12
2018-02-23T09:19:30.960Z,101230.35
2018-02-23T09:20:33.485Z,101234.12
2018-02-23T09:21:35.956Z,101232.33
2018-02-23T09:22:38.449Z,101235.58
2018-02-23T09:23:40.935Z,101230.89
2018-02-23T09:24:43.408Z,101230.00
2018-02-23T09:25:45.875Z,101231.73
2018-02-23T09:26:48.352Z,101233.27
2018-02-23T09:27:50.912Z,101233.05
2018-02-23T09:28:53.422Z,101230.02
2018-02-23T09:29:55.895Z,101234.09
2018-02-23T09:30:58.377Z,101231.02
2018-02-23T09:32:00.848Z,101228.66
2018-02-23T09:33:03.489Z,101223.23
2018-02-23T09:34:17.854Z,101228.02
2018-02-23T09:35:20.331Z,101233.52
2018-02-23T09:36:22.818Z,101235.13
2018-02-23T09:37:25.296Z,101235.20
2018-02-23T09:38:27.787Z,101231.39
2018-02-23T09:39:30.264Z,101235.27
2018-02-23T09:40:32.749Z,101242.41
2018-02-23T09:41:35.245Z,101239.11
2018-02-23T09:42:37.915Z,101229.31
2018-02-23T09:43:40.595Z,101228.31
2018-02-23T09:44:43.062Z,101230.77
2018-02-23T09:45:45.527Z,101227.61
2018-02-23T09:46:48.011Z,101224.00
2018-02-23T09:47:50.489Z,101224.09
2018-02-23T09:48:53.000Z,101220.60
2018-02-23T09:49:55.493Z,101220.20
2018-02-23T09:50:57.980Z,101224.98
2018-02-23T09:52:00.553Z,101220.44
2018-02-23T09:53:03.042Z,101221.48
2018-02-23T09:54:05.536Z,101223.35
2018-02-23T09:55:08.025Z,101227.08
2018-02-23T09:56:10.495Z,101227.81
2018-02-23T09:57:12.957Z,101230.09
2018-02-23T09:58:15.445Z,101227.89
2018-02-23T09:59:17.945Z,101224.49
2018-02-23T10:00:20.434Z,101231.64
2018-02-23T10:01:22.904Z,101229.17
2018-02-23T10:02:25.385Z,101229.59
2018-02-23T10:03:27.872Z,101230.84
2018-02-23T10:04:30.373Z,101231.61
2018-02-23T10:05:32.907Z,101224.06
2018-02-23T10:06:35.380Z,101218.38
2018-02-23T10:07:37.865Z,101228.20
2018-02-23T10:08:40.340Z,101226.33
2018-02-23T10:09:42.845Z,101220.56
2018-02-23T10:10:45.344Z,101216.07
2018-02-23T10:11:47.821Z,101219.94
2018-02-23T10:12:50.292Z,101224.15
2018-02-23T10:13:52.769Z,101220.66
2018-02-23T10:14:55.255Z,101218.09
2018-02-23T10:15:57.732Z,101221.78
2018-02-23T10:17:00.203Z,101228.36
2018-02-23T10:18:02.676Z,101222.77
2018-02-23T10:19:05.228Z,101222.48
2018-02-23T10:20:07.944Z,101228.89
2018-02-23T10:21:10.424Z,101223.13
2018-02-23T10:22:12.890Z,101219.23
2018-02-23T10:23:15.372Z,101226.45
2018-02-23T10:24:17.861Z,101224.02
2018-02-23T10:25:20.355Z,101229.05
2018-02-23T10:26:22.821Z,101231.65
2018-02-23T10:27:25.329Z,101228.81
2018-02-23T10:28:27.798Z,101227.75
2018-02-23T10:29:30.285Z,101221.23
2018-02-23T10:30:32.793Z,101220.73
2018-02-23T10:31:35.278Z,101222.56
2018-02-23T10:32:37.758Z,101226.45
2018-02-23T10:33:40.233Z,101218.34
2018-02-23T10:34:42.717Z,101215.91
2018-02-23T10:35:45.199Z,101214.60
2018-02-23T10:36:47.764Z,101210.81
2018-02-23T10:37:50.227Z,101207.00
2018-02-23T10:38:52.705Z,101205.86
2018-02-23T10:39:55.194Z,101206.10
2018-02-23T10:40:57.678Z,101200.58
2018-02-23T10:42:00.196Z,101199.36
2018-02-23T10:43:02.663Z,101210.81
2018-02-23T10:44:05.155Z,101210.25
2018-02-23T10:45:07.633Z,101212.36
2018-02-23T10:46:10.127Z,101202.59
2018-02-23T10:47:12.636Z,101208.27
2018-02-23T10:48:15.118Z,101208.59
2018-02-23T10:49:17.584Z,101210.14
2018-02-23T10:50:20.047Z,101205.34
2018-02-23T10:51:22.544Z,101205.62
2018-02-23T10:52:25.033Z,101203.66
2018-02-23T10:53:27.526Z,101201.50
2018-02-23T10:54:29.998Z,101198.41
2018-02-23T10:55:32.490Z,101194.84
2018-02-23T10:56:34.991Z,101200.93
2018-02-23T10:57:37.487Z,101195.16
2018-02-23T10:58:39.961Z,101186.06
2018-02-23T10:59:42.444Z,101186.31
2018-02-23T11:00:44.915Z,101187.05
2018-02-23T11:01:47.414Z,101186.20
2018-02-23T11:02:49.897Z,101184.50
2018-02-23T11:03:52.382Z,101186.53
2018-02-23T11:04:54.859Z,101182.48
2018-02-23T11:05:57.336Z,101187.84
2018-02-23T11:06:59.877Z,101184.51
2018-02-23T11:08:02.364Z,101178.09
2018-02-23T11:09:04.862Z,101176.65
2018-02-23T11:10:07.360Z,101180.46
2018-02-23T11:11:09.856Z,101178.50
2018-02-23T11:12:12.367Z,101179.14
2018-02-23T11:13:14.868Z,101175.84
2018-02-23T11:14:17.345Z,101171.70
2018-02-23T11:15:19.803Z,101171.38
2018-02-23T11:16:22.263Z,101168.09
2018-02-23T11:17:24.747Z,101168.34
2018-02-23T11:18:27.214Z,101174.03
2018-02-23T11:19:29.731Z,101162.67
2018-02-23T11:20:32.315Z,101163.97
2018-02-23T11:21:34.797Z,101163.89
2018-02-23T11:22:37.295Z,101168.44
2018-02-23T11:23:39.782Z,101161.95
2018-02-23T11:24:42.261Z,101169.97
2018-02-23T11:25:44.741Z,101168.20
2018-02-23T11:26:47.217Z,101168.60
2018-02-23T11:27:49.701Z,101166.25
2018-02-23T11:28:52.185Z,101161.63
2018-02-23T11:29:54.655Z,101165.77
2018-02-23T11:30:57.124Z,101163.50
2018-02-23T11:31:59.617Z,101162.45
2018-02-23T11:33:02.218Z,101162.11
2018-02-23T11:34:04.688Z,101157.52
2018-02-23T11:35:07.204Z,101159.25
2018-02-23T11:36:09.679Z,101156.98
2018-02-23T11:37:12.139Z,101164.38
2018-02-23T11:38:14.641Z,101160.73
2018-02-23T11:39:17.115Z,101153.83
2018-02-23T11:40:19.597Z,101152.52
2018-02-23T11:41:22.101Z,101153.16
2018-02-23T11:42:24.585Z,101148.52
2018-02-23T11:43:27.093Z,101151.30
2018-02-23T11:44:29.584Z,101146.83
2018-02-23T11:45:32.071Z,101140.23
2018-02-23T11:46:34.549Z,101138.45
2018-02-23T11:47:37.033Z,101142.34
2018-02-23T11:48:39.601Z,101140.56
2018-02-23T11:49:42.081Z,101146.33
2018-02-23T11:50:44.569Z,101143.98
2018-02-23T11:51:47.043Z,101147.17
2018-02-23T11:52:49.525Z,101142.44
2018-02-23T11:53:52.003Z,101142.66
2018-02-23T11:54:54.464Z,101136.41